sensor_id;sensor_type;location;lat;lon;timestamp;P1;durP1;ratioP1;P2;durP2;ratioP2
3939;SDS011;1984;48.312;9.244;2023-04-26T00:01:06;4.83;;;3.03;;
3939;SDS011;1984;48.312;9.244;2023-04-26T00:03:32;5.07;;;3.60;;
3939;SDS011;1984;48.312;9.244;2023-04-26T00:05:58;3.80;;;3.10;;
3939;SDS011;1984;48.312;9.244;2023-04-26T00:08:29;3.87;;;3.43;;
3939;SDS011;1984;48.312;9.244;2023-04-26T00:10:55;5.50;;;3.63;;
3939;SDS011;1984;48.312;9.244;2023-04-26T00:13:20;3.80;;;3.07;;
3939;SDS011;1984;48.312;9.244;2023-04-26T00:15:46;5.33;;;3.10;;
3939;SDS011;1984;48.312;9.244;2023-04-26T00:18:11;4.70;;;3.73;;
3939;SDS011;1984;48.312;9.244;2023-04-26T00:20:37;6.07;;;4.27;;
3939;SDS011;1984;48.312;9.244;2023-04-26T00:23:03;7.10;;;4.63;;
3939;SDS011;1984;48.312;9.244;2023-04-26T00:25:29;5.40;;;4.30;;
3939;SDS011;1984;48.312;9.244;2023-04-26T00:27:54;6.93;;;4.50;;
3939;SDS011;1984;48.312;9.244;2023-04-26T00:30:20;9.17;;;5.27;;
3939;SDS011;1984;48.312;9.244;2023-04-26T00:32:46;9.17;;;5.07;;
3939;SDS011;1984;48.312;9.244;2023-04-26T00:35:12;7.97;;;5.13;;
3939;SDS011;1984;48.312;9.244;2023-04-26T00:37:37;7.67;;;4.53;;
3939;SDS011;1984;48.312;9.244;2023-04-26T00:40:03;6.07;;;4.50;;
3939;SDS011;1984;48.312;9.244;2023-04-26T00:42:30;7.27;;;4.77;;
3939;SDS011;1984;48.312;9.244;2023-04-26T00:44:56;6.57;;;3.80;;
3939;SDS011;1984;48.312;9.244;2023-04-26T00:47:21;5.87;;;4.17;;
3939;SDS011;1984;48.312;9.244;2023-04-26T00:49:48;6.53;;;4.97;;
3939;SDS011;1984;48.312;9.244;2023-04-26T00:52:14;6.77;;;4.83;;
3939;SDS011;1984;48.312;9.244;2023-04-26T00:54:40;5.23;;;4.10;;
3939;SDS011;1984;48.312;9.244;2023-04-26T00:57:06;6.73;;;3.97;;
3939;SDS011;1984;48.312;9.244;2023-04-26T00:59:33;6.80;;;4.77;;
3939;SDS011;1984;48.312;9.244;2023-04-26T01:02:01;7.90;;;4.33;;
3939;SDS011;1984;48.312;9.244;2023-04-26T01:04:27;6.93;;;4.40;;
3939;SDS011;1984;48.312;9.244;2023-04-26T01:06:54;9.80;;;4.83;;
3939;SDS011;1984;48.312;9.244;2023-04-26T01:09:20;7.07;;;5.47;;
3939;SDS011;1984;48.312;9.244;2023-04-26T01:11:46;6.77;;;4.30;;
3939;SDS011;1984;48.312;9.244;2023-04-26T01:14:12;6.23;;;4.20;;
3939;SDS011;1984;48.312;9.244;2023-04-26T01:16:39;6.33;;;4.40;;
3939;SDS011;1984;48.312;9.244;2023-04-26T01:19:11;6.43;;;3.90;;
3939;SDS011;1984;48.312;9.244;2023-04-26T01:21:37;9.70;;;4.57;;
3939;SDS011;1984;48.312;9.244;2023-04-26T01:24:03;4.83;;;4.43;;
3939;SDS011;1984;48.312;9.244;2023-04-26T01:26:30;9.80;;;4.40;;
3939;SDS011;1984;48.312;9.244;2023-04-26T01:28:56;5.27;;;4.60;;
3939;SDS011;1984;48.312;9.244;2023-04-26T01:31:22;5.70;;;4.93;;
3939;SDS011;1984;48.312;9.244;2023-04-26T01:33:48;6.97;;;5.03;;
3939;SDS011;1984;48.312;9.244;2023-04-26T01:36:13;7.00;;;4.17;;
3939;SDS011;1984;48.312;9.244;2023-04-26T01:38:39;5.20;;;4.33;;
3939;SDS011;1984;48.312;9.244;2023-04-26T01:41:04;6.73;;;4.10;;
3939;SDS011;1984;48.312;9.244;2023-04-26T01:43:30;7.00;;;4.93;;
3939;SDS011;1984;48.312;9.244;2023-04-26T01:45:55;6.70;;;4.73;;
3939;SDS011;1984;48.312;9.244;2023-04-26T01:48:21;7.03;;;4.93;;
3939;SDS011;1984;48.312;9.244;2023-04-26T01:50:46;7.07;;;5.07;;
3939;SDS011;1984;48.312;9.244;2023-04-26T01:53:12;5.30;;;4.30;;
3939;SDS011;1984;48.312;9.244;2023-04-26T01:55:37;7.90;;;4.87;;
3939;SDS011;1984;48.312;9.244;2023-04-26T01:58:03;6.87;;;4.80;;
3939;SDS011;1984;48.312;9.244;2023-04-26T02:00:29;8.00;;;5.40;;
3939;SDS011;1984;48.312;9.244;2023-04-26T02:02:55;5.30;;;4.80;;
3939;SDS011;1984;48.312;9.244;2023-04-26T02:05:21;7.47;;;4.90;;
3939;SDS011;1984;48.312;9.244;2023-04-26T02:07:47;9.30;;;5.23;;
3939;SDS011;1984;48.312;9.244;2023-04-26T02:10:12;5.83;;;4.50;;
3939;SDS011;1984;48.312;9.244;2023-04-26T02:12:38;10.60;;;5.20;;
3939;SDS011;1984;48.312;9.244;2023-04-26T02:15:03;7.60;;;5.23;;
3939;SDS011;1984;48.312;9.244;2023-04-26T02:17:30;8.60;;;5.47;;
3939;SDS011;1984;48.312;9.244;2023-04-26T02:19:55;11.57;;;5.47;;
3939;SDS011;1984;48.312;9.244;2023-04-26T02:22:22;7.70;;;4.60;;
3939;SDS011;1984;48.312;9.244;2023-04-26T02:24:49;6.97;;;5.23;;
3939;SDS011;1984;48.312;9.244;2023-04-26T02:27:16;7.53;;;5.00;;
3939;SDS011;1984;48.312;9.244;2023-04-26T02:29:41;8.10;;;5.00;;
3939;SDS011;1984;48.312;9.244;2023-04-26T02:32:07;6.63;;;4.90;;
3939;SDS011;1984;48.312;9.244;2023-04-26T02:34:32;12.47;;;5.77;;
3939;SDS011;1984;48.312;9.244;2023-04-26T02:36:58;6.70;;;5.23;;
3939;SDS011;1984;48.312;9.244;2023-04-26T02:39:24;6.30;;;4.77;;
3939;SDS011;1984;48.312;9.244;2023-04-26T02:41:50;5.90;;;4.70;;
3939;SDS011;1984;48.312;9.244;2023-04-26T02:44:15;5.67;;;4.73;;
3939;SDS011;1984;48.312;9.244;2023-04-26T02:46:41;11.60;;;5.60;;
3939;SDS011;1984;48.312;9.244;2023-04-26T02:49:06;10.07;;;5.53;;
3939;SDS011;1984;48.312;9.244;2023-04-26T02:51:32;9.03;;;6.10;;
3939;SDS011;1984;48.312;9.244;2023-04-26T02:53:58;18.67;;;6.67;;
3939;SDS011;1984;48.312;9.244;2023-04-26T02:56:23;10.80;;;7.70;;
3939;SDS011;1984;48.312;9.244;2023-04-26T02:58:49;9.77;;;6.30;;
3939;SDS011;1984;48.312;9.244;2023-04-26T03:01:15;6.00;;;5.40;;
3939;SDS011;1984;48.312;9.244;2023-04-26T03:03:41;6.90;;;5.40;;
3939;SDS011;1984;48.312;9.244;2023-04-26T03:06:07;18.23;;;8.00;;
3939;SDS011;1984;48.312;9.244;2023-04-26T03:08:33;15.80;;;8.30;;
3939;SDS011;1984;48.312;9.244;2023-04-26T03:11:00;9.40;;;6.60;;
3939;SDS011;1984;48.312;9.244;2023-04-26T03:13:26;7.47;;;5.87;;
3939;SDS011;1984;48.312;9.244;2023-04-26T03:15:52;7.93;;;5.93;;
3939;SDS011;1984;48.312;9.244;2023-04-26T03:18:18;14.23;;;7.40;;
3939;SDS011;1984;48.312;9.244;2023-04-26T03:20:44;9.30;;;6.80;;
3939;SDS011;1984;48.312;9.244;2023-04-26T03:23:10;9.43;;;6.57;;
3939;SDS011;1984;48.312;9.244;2023-04-26T03:25:35;10.47;;;6.50;;
3939;SDS011;1984;48.312;9.244;2023-04-26T03:28:01;8.50;;;6.50;;
3939;SDS011;1984;48.312;9.244;2023-04-26T03:30:27;9.27;;;5.53;;
3939;SDS011;1984;48.312;9.244;2023-04-26T03:32:53;11.17;;;7.00;;
3939;SDS011;1984;48.312;9.244;2023-04-26T03:35:19;9.60;;;5.73;;
3939;SDS011;1984;48.312;9.244;2023-04-26T03:37:45;13.00;;;6.10;;
3939;SDS011;1984;48.312;9.244;2023-04-26T03:40:10;6.90;;;5.60;;
3939;SDS011;1984;48.312;9.244;2023-04-26T03:42:36;7.93;;;5.60;;
3939;SDS011;1984;48.312;9.244;2023-04-26T03:45:02;8.70;;;5.60;;
3939;SDS011;1984;48.312;9.244;2023-04-26T03:47:29;7.43;;;5.60;;
3939;SDS011;1984;48.312;9.244;2023-04-26T03:49:55;15.27;;;6.33;;
3939;SDS011;1984;48.312;9.244;2023-04-26T03:52:21;9.90;;;7.30;;
3939;SDS011;1984;48.312;9.244;2023-04-26T03:54:47;8.63;;;6.10;;
3939;SDS011;1984;48.312;9.244;2023-04-26T03:57:12;12.33;;;6.63;;
3939;SDS011;1984;48.312;9.244;2023-04-26T03:59:38;16.13;;;6.77;;
3939;SDS011;1984;48.312;9.244;2023-04-26T04:02:03;8.67;;;6.50;;
3939;SDS011;1984;48.312;9.244;2023-04-26T04:04:30;11.37;;;7.90;;
3939;SDS011;1984;48.312;9.244;2023-04-26T04:06:55;10.57;;;6.97;;
3939;SDS011;1984;48.312;9.244;2023-04-26T04:09:22;11.23;;;7.50;;
3939;SDS011;1984;48.312;9.244;2023-04-26T04:11:48;14.40;;;7.03;;
3939;SDS011;1984;48.312;9.244;2023-04-26T04:14:13;15.13;;;7.23;;
3939;SDS011;1984;48.312;9.244;2023-04-26T04:16:39;8.97;;;7.27;;
3939;SDS011;1984;48.312;9.244;2023-04-26T04:19:04;19.07;;;7.87;;
3939;SDS011;1984;48.312;9.244;2023-04-26T04:21:30;17.40;;;7.27;;
3939;SDS011;1984;48.312;9.244;2023-04-26T04:23:55;52.47;;;8.17;;
3939;SDS011;1984;48.312;9.244;2023-04-26T04:26:21;37.97;;;10.50;;
3939;SDS011;1984;48.312;9.244;2023-04-26T04:28:47;13.97;;;7.90;;
3939;SDS011;1984;48.312;9.244;2023-04-26T04:31:12;19.73;;;7.23;;
3939;SDS011;1984;48.312;9.244;2023-04-26T04:33:38;8.60;;;6.50;;
3939;SDS011;1984;48.312;9.244;2023-04-26T04:36:04;12.33;;;8.00;;
3939;SDS011;1984;48.312;9.244;2023-04-26T04:38:31;64.67;;;9.87;;
3939;SDS011;1984;48.312;9.244;2023-04-26T04:40:57;56.07;;;8.60;;
3939;SDS011;1984;48.312;9.244;2023-04-26T04:43:22;54.10;;;7.40;;
3939;SDS011;1984;48.312;9.244;2023-04-26T04:45:48;114.43;;;10.03;;
3939;SDS011;1984;48.312;9.244;2023-04-26T04:48:14;13.47;;;7.87;;
3939;SDS011;1984;48.312;9.244;2023-04-26T04:50:40;26.13;;;7.93;;
3939;SDS011;1984;48.312;9.244;2023-04-26T04:53:08;30.23;;;7.70;;
3939;SDS011;1984;48.312;9.244;2023-04-26T04:55:34;16.50;;;7.50;;
3939;SDS011;1984;48.312;9.244;2023-04-26T04:58:01;13.23;;;7.67;;
3939;SDS011;1984;48.312;9.244;2023-04-26T05:00:27;11.33;;;6.97;;
3939;SDS011;1984;48.312;9.244;2023-04-26T05:02:53;30.87;;;8.43;;
3939;SDS011;1984;48.312;9.244;2023-04-26T05:05:19;18.47;;;7.20;;
3939;SDS011;1984;48.312;9.244;2023-04-26T05:07:44;29.83;;;8.80;;
3939;SDS011;1984;48.312;9.244;2023-04-26T05:10:10;14.10;;;8.23;;
3939;SDS011;1984;48.312;9.244;2023-04-26T05:12:36;20.33;;;9.37;;
3939;SDS011;1984;48.312;9.244;2023-04-26T05:15:02;14.97;;;9.00;;
3939;SDS011;1984;48.312;9.244;2023-04-26T05:17:28;16.60;;;8.60;;
3939;SDS011;1984;48.312;9.244;2023-04-26T05:19:56;14.93;;;8.80;;
3939;SDS011;1984;48.312;9.244;2023-04-26T05:22:21;16.80;;;9.30;;
3939;SDS011;1984;48.312;9.244;2023-04-26T05:24:47;13.07;;;8.17;;
3939;SDS011;1984;48.312;9.244;2023-04-26T05:27:13;12.70;;;8.30;;
3939;SDS011;1984;48.312;9.244;2023-04-26T05:29:39;16.53;;;9.40;;
3939;SDS011;1984;48.312;9.244;2023-04-26T05:32:05;14.77;;;8.27;;
3939;SDS011;1984;48.312;9.244;2023-04-26T05:34:31;19.50;;;9.30;;
3939;SDS011;1984;48.312;9.244;2023-04-26T05:36:56;16.47;;;9.57;;
3939;SDS011;1984;48.312;9.244;2023-04-26T05:39:22;11.07;;;6.97;;
3939;SDS011;1984;48.312;9.244;2023-04-26T05:41:48;12.63;;;7.73;;
3939;SDS011;1984;48.312;9.244;2023-04-26T05:44:13;12.60;;;7.37;;
3939;SDS011;1984;48.312;9.244;2023-04-26T05:46:39;20.90;;;7.73;;
3939;SDS011;1984;48.312;9.244;2023-04-26T05:49:05;8.43;;;5.73;;
3939;SDS011;1984;48.312;9.244;2023-04-26T05:51:30;49.60;;;7.10;;
3939;SDS011;1984;48.312;9.244;2023-04-26T05:53:56;29.53;;;6.13;;
3939;SDS011;1984;48.312;9.244;2023-04-26T05:56:22;21.33;;;6.07;;
3939;SDS011;1984;48.312;9.244;2023-04-26T05:58:48;10.10;;;6.30;;
3939;SDS011;1984;48.312;9.244;2023-04-26T06:01:14;10.27;;;7.27;;
3939;SDS011;1984;48.312;9.244;2023-04-26T06:03:40;14.57;;;7.20;;
3939;SDS011;1984;48.312;9.244;2023-04-26T06:06:05;7.80;;;5.67;;
3939;SDS011;1984;48.312;9.244;2023-04-26T06:08:31;12.23;;;6.57;;
3939;SDS011;1984;48.312;9.244;2023-04-26T06:10:57;14.43;;;5.80;;
3939;SDS011;1984;48.312;9.244;2023-04-26T06:13:23;7.33;;;6.10;;
3939;SDS011;1984;48.312;9.244;2023-04-26T06:15:48;9.57;;;6.00;;
3939;SDS011;1984;48.312;9.244;2023-04-26T06:18:14;8.57;;;6.50;;
3939;SDS011;1984;48.312;9.244;2023-04-26T06:20:39;13.47;;;5.77;;
3939;SDS011;1984;48.312;9.244;2023-04-26T06:23:05;7.23;;;5.67;;
3939;SDS011;1984;48.312;9.244;2023-04-26T06:25:30;13.20;;;5.37;;
3939;SDS011;1984;48.312;9.244;2023-04-26T06:27:57;6.50;;;5.90;;
3939;SDS011;1984;48.312;9.244;2023-04-26T06:30:23;9.70;;;6.80;;
3939;SDS011;1984;48.312;9.244;2023-04-26T06:32:49;9.50;;;6.50;;
3939;SDS011;1984;48.312;9.244;2023-04-26T06:35:14;6.97;;;5.20;;
3939;SDS011;1984;48.312;9.244;2023-04-26T06:37:40;8.07;;;5.70;;
3939;SDS011;1984;48.312;9.244;2023-04-26T06:40:06;8.20;;;6.53;;
3939;SDS011;1984;48.312;9.244;2023-04-26T06:42:32;10.50;;;6.67;;
3939;SDS011;1984;48.312;9.244;2023-04-26T06:44:57;10.43;;;6.30;;
3939;SDS011;1984;48.312;9.244;2023-04-26T06:47:23;8.03;;;6.00;;
3939;SDS011;1984;48.312;9.244;2023-04-26T06:49:49;12.03;;;5.70;;
3939;SDS011;1984;48.312;9.244;2023-04-26T06:52:15;12.43;;;6.10;;
3939;SDS011;1984;48.312;9.244;2023-04-26T06:54:41;15.70;;;5.67;;
3939;SDS011;1984;48.312;9.244;2023-04-26T06:57:06;8.13;;;5.80;;
3939;SDS011;1984;48.312;9.244;2023-04-26T06:59:32;9.03;;;5.67;;
3939;SDS011;1984;48.312;9.244;2023-04-26T07:01:57;6.13;;;4.47;;
3939;SDS011;1984;48.312;9.244;2023-04-26T07:04:24;6.83;;;3.77;;
3939;SDS011;1984;48.312;9.244;2023-04-26T07:06:50;7.47;;;3.90;;
3939;SDS011;1984;48.312;9.244;2023-04-26T07:09:16;7.07;;;4.27;;
3939;SDS011;1984;48.312;9.244;2023-04-26T07:11:44;6.20;;;4.00;;
3939;SDS011;1984;48.312;9.244;2023-04-26T07:14:11;14.73;;;4.70;;
3939;SDS011;1984;48.312;9.244;2023-04-26T07:16:36;4.90;;;3.70;;
3939;SDS011;1984;48.312;9.244;2023-04-26T07:19:02;14.27;;;4.03;;
3939;SDS011;1984;48.312;9.244;2023-04-26T07:21:27;7.63;;;4.40;;
3939;SDS011;1984;48.312;9.244;2023-04-26T07:23:53;10.93;;;4.17;;
3939;SDS011;1984;48.312;9.244;2023-04-26T07:26:20;5.43;;;4.33;;
3939;SDS011;1984;48.312;9.244;2023-04-26T07:28:52;6.03;;;4.17;;
3939;SDS011;1984;48.312;9.244;2023-04-26T07:31:18;14.83;;;4.30;;
3939;SDS011;1984;48.312;9.244;2023-04-26T07:33:44;8.53;;;4.43;;
3939;SDS011;1984;48.312;9.244;2023-04-26T07:36:09;5.90;;;3.80;;
3939;SDS011;1984;48.312;9.244;2023-04-26T07:38:35;4.50;;;4.00;;
3939;SDS011;1984;48.312;9.244;2023-04-26T07:41:01;7.30;;;4.30;;
3939;SDS011;1984;48.312;9.244;2023-04-26T07:43:26;8.87;;;4.90;;
3939;SDS011;1984;48.312;9.244;2023-04-26T07:45:53;8.60;;;4.30;;
3939;SDS011;1984;48.312;9.244;2023-04-26T07:48:19;8.80;;;3.97;;
3939;SDS011;1984;48.312;9.244;2023-04-26T07:50:45;7.57;;;4.73;;
3939;SDS011;1984;48.312;9.244;2023-04-26T07:53:10;18.93;;;3.83;;
3939;SDS011;1984;48.312;9.244;2023-04-26T07:55:36;8.83;;;3.90;;
3939;SDS011;1984;48.312;9.244;2023-04-26T07:58:01;5.10;;;3.80;;
3939;SDS011;1984;48.312;9.244;2023-04-26T08:00:28;3.73;;;3.33;;
3939;SDS011;1984;48.312;9.244;2023-04-26T08:02:53;6.97;;;3.20;;
3939;SDS011;1984;48.312;9.244;2023-04-26T08:05:19;8.17;;;4.30;;
3939;SDS011;1984;48.312;9.244;2023-04-26T08:07:44;10.00;;;3.77;;
3939;SDS011;1984;48.312;9.244;2023-04-26T08:10:10;3.37;;;3.10;;
3939;SDS011;1984;48.312;9.244;2023-04-26T08:12:36;8.70;;;3.43;;
3939;SDS011;1984;48.312;9.244;2023-04-26T08:15:03;4.40;;;3.37;;
3939;SDS011;1984;48.312;9.244;2023-04-26T08:17:30;7.50;;;3.80;;
3939;SDS011;1984;48.312;9.244;2023-04-26T08:19:56;6.60;;;2.97;;
3939;SDS011;1984;48.312;9.244;2023-04-26T08:22:22;5.77;;;3.00;;
3939;SDS011;1984;48.312;9.244;2023-04-26T08:24:48;4.97;;;2.83;;
3939;SDS011;1984;48.312;9.244;2023-04-26T08:27:15;3.57;;;2.80;;
3939;SDS011;1984;48.312;9.244;2023-04-26T08:29:43;6.53;;;2.90;;
3939;SDS011;1984;48.312;9.244;2023-04-26T08:32:08;3.20;;;2.83;;
3939;SDS011;1984;48.312;9.244;2023-04-26T08:34:34;3.90;;;2.67;;
3939;SDS011;1984;48.312;9.244;2023-04-26T08:36:59;7.73;;;2.30;;
3939;SDS011;1984;48.312;9.244;2023-04-26T08:39:25;3.40;;;2.80;;
3939;SDS011;1984;48.312;9.244;2023-04-26T08:41:54;3.97;;;1.93;;
3939;SDS011;1984;48.312;9.244;2023-04-26T08:44:21;4.97;;;2.30;;
3939;SDS011;1984;48.312;9.244;2023-04-26T08:47:00;5.03;;;2.63;;
3939;SDS011;1984;48.312;9.244;2023-04-26T08:49:32;5.73;;;2.87;;
3939;SDS011;1984;48.312;9.244;2023-04-26T08:52:07;3.33;;;2.50;;
3939;SDS011;1984;48.312;9.244;2023-04-26T08:54:34;4.90;;;2.80;;
3939;SDS011;1984;48.312;9.244;2023-04-26T08:57:01;4.97;;;3.10;;
3939;SDS011;1984;48.312;9.244;2023-04-26T08:59:28;7.10;;;3.10;;
3939;SDS011;1984;48.312;9.244;2023-04-26T09:01:55;5.30;;;3.40;;
3939;SDS011;1984;48.312;9.244;2023-04-26T09:04:22;3.77;;;3.47;;
3939;SDS011;1984;48.312;9.244;2023-04-26T09:06:47;3.60;;;3.30;;
3939;SDS011;1984;48.312;9.244;2023-04-26T09:09:15;4.40;;;2.80;;
3939;SDS011;1984;48.312;9.244;2023-04-26T09:11:59;4.27;;;2.77;;
3939;SDS011;1984;48.312;9.244;2023-04-26T09:14:27;3.83;;;3.13;;
3939;SDS011;1984;48.312;9.244;2023-04-26T09:16:53;4.70;;;3.17;;
3939;SDS011;1984;48.312;9.244;2023-04-26T09:19:35;6.07;;;3.57;;
3939;SDS011;1984;48.312;9.244;2023-04-26T09:22:08;3.33;;;2.73;;
3939;SDS011;1984;48.312;9.244;2023-04-26T09:24:49;4.57;;;3.10;;
3939;SDS011;1984;48.312;9.244;2023-04-26T09:27:16;4.47;;;3.00;;
3939;SDS011;1984;48.312;9.244;2023-04-26T09:30:04;3.43;;;2.80;;
3939;SDS011;1984;48.312;9.244;2023-04-26T09:32:49;2.80;;;2.10;;
3939;SDS011;1984;48.312;9.244;2023-04-26T09:35:38;4.27;;;3.10;;
3939;SDS011;1984;48.312;9.244;2023-04-26T09:40:38;2.30;;;2.10;;
3939;SDS011;1984;48.312;9.244;2023-04-26T09:45:45;2.00;;;1.90;;
3939;SDS011;1984;48.312;9.244;2023-04-26T09:50:42;6.17;;;2.90;;
3939;SDS011;1984;48.312;9.244;2023-04-26T09:53:23;4.90;;;3.30;;
3939;SDS011;1984;48.312;9.244;2023-04-26T09:55:55;4.47;;;3.07;;
3939;SDS011;1984;48.312;9.244;2023-04-26T09:58:22;3.30;;;2.47;;
3939;SDS011;1984;48.312;9.244;2023-04-26T10:00:50;9.10;;;2.90;;
3939;SDS011;1984;48.312;9.244;2023-04-26T10:03:19;6.80;;;3.50;;
3939;SDS011;1984;48.312;9.244;2023-04-26T10:05:46;22.33;;;4.13;;
3939;SDS011;1984;48.312;9.244;2023-04-26T10:08:12;5.10;;;3.00;;
3939;SDS011;1984;48.312;9.244;2023-04-26T10:10:37;5.93;;;2.93;;
3939;SDS011;1984;48.312;9.244;2023-04-26T10:13:04;4.37;;;2.87;;
3939;SDS011;1984;48.312;9.244;2023-04-26T10:15:30;6.43;;;2.73;;
3939;SDS011;1984;48.312;9.244;2023-04-26T10:17:56;13.00;;;3.10;;
3939;SDS011;1984;48.312;9.244;2023-04-26T10:20:22;4.73;;;2.63;;
3939;SDS011;1984;48.312;9.244;2023-04-26T10:22:51;5.70;;;3.23;;
3939;SDS011;1984;48.312;9.244;2023-04-26T10:25:19;4.13;;;2.70;;
3939;SDS011;1984;48.312;9.244;2023-04-26T10:30:12;3.10;;;2.77;;
3939;SDS011;1984;48.312;9.244;2023-04-26T10:35:35;5.23;;;3.60;;
3939;SDS011;1984;48.312;9.244;2023-04-26T10:45:46;10.33;;;3.17;;
3939;SDS011;1984;48.312;9.244;2023-04-26T10:53:29;3.07;;;2.60;;
3939;SDS011;1984;48.312;9.244;2023-04-26T10:55:56;5.03;;;2.10;;
3939;SDS011;1984;48.312;9.244;2023-04-26T11:01:14;4.30;;;2.37;;
3939;SDS011;1984;48.312;9.244;2023-04-26T11:03:41;3.60;;;2.60;;
3939;SDS011;1984;48.312;9.244;2023-04-26T11:06:22;2.13;;;2.03;;
3939;SDS011;1984;48.312;9.244;2023-04-26T11:08:49;7.60;;;3.50;;
3939;SDS011;1984;48.312;9.244;2023-04-26T11:11:15;6.77;;;3.10;;
3939;SDS011;1984;48.312;9.244;2023-04-26T11:13:43;5.00;;;3.30;;
3939;SDS011;1984;48.312;9.244;2023-04-26T11:16:11;4.40;;;2.40;;
3939;SDS011;1984;48.312;9.244;2023-04-26T11:18:38;2.90;;;2.60;;
3939;SDS011;1984;48.312;9.244;2023-04-26T11:21:06;3.37;;;2.50;;
3939;SDS011;1984;48.312;9.244;2023-04-26T11:23:32;8.10;;;2.40;;
3939;SDS011;1984;48.312;9.244;2023-04-26T11:25:59;8.33;;;3.43;;
3939;SDS011;1984;48.312;9.244;2023-04-26T11:28:30;3.70;;;2.67;;
3939;SDS011;1984;48.312;9.244;2023-04-26T11:30:56;9.70;;;3.43;;
3939;SDS011;1984;48.312;9.244;2023-04-26T11:33:22;2.87;;;2.57;;
3939;SDS011;1984;48.312;9.244;2023-04-26T11:35:51;5.27;;;3.40;;
3939;SDS011;1984;48.312;9.244;2023-04-26T11:38:21;6.73;;;3.00;;
3939;SDS011;1984;48.312;9.244;2023-04-26T11:40:55;2.90;;;2.50;;
3939;SDS011;1984;48.312;9.244;2023-04-26T11:43:29;3.70;;;2.50;;
3939;SDS011;1984;48.312;9.244;2023-04-26T11:45:59;2.30;;;2.03;;
3939;SDS011;1984;48.312;9.244;2023-04-26T11:48:25;5.27;;;3.60;;
3939;SDS011;1984;48.312;9.244;2023-04-26T11:50:52;3.47;;;3.17;;
3939;SDS011;1984;48.312;9.244;2023-04-26T11:53:20;4.23;;;3.43;;
3939;SDS011;1984;48.312;9.244;2023-04-26T11:55:45;4.43;;;3.40;;
3939;SDS011;1984;48.312;9.244;2023-04-26T11:58:12;4.83;;;2.90;;
3939;SDS011;1984;48.312;9.244;2023-04-26T12:00:54;3.00;;;2.80;;
3939;SDS011;1984;48.312;9.244;2023-04-26T12:03:20;2.30;;;2.10;;
3939;SDS011;1984;48.312;9.244;2023-04-26T12:05:52;4.40;;;3.30;;
3939;SDS011;1984;48.312;9.244;2023-04-26T12:08:19;2.97;;;2.67;;
3939;SDS011;1984;48.312;9.244;2023-04-26T12:10:48;11.43;;;2.67;;
3939;SDS011;1984;48.312;9.244;2023-04-26T12:13:14;3.43;;;2.90;;
3939;SDS011;1984;48.312;9.244;2023-04-26T12:15:40;5.70;;;2.90;;
3939;SDS011;1984;48.312;9.244;2023-04-26T12:18:09;2.73;;;2.33;;
3939;SDS011;1984;48.312;9.244;2023-04-26T12:20:41;6.20;;;2.37;;
3939;SDS011;1984;48.312;9.244;2023-04-26T12:23:08;2.37;;;2.17;;
3939;SDS011;1984;48.312;9.244;2023-04-26T12:25:38;3.53;;;2.47;;
3939;SDS011;1984;48.312;9.244;2023-04-26T12:28:06;3.23;;;2.40;;
3939;SDS011;1984;48.312;9.244;2023-04-26T12:30:35;2.97;;;2.63;;
3939;SDS011;1984;48.312;9.244;2023-04-26T12:33:02;5.73;;;2.60;;
3939;SDS011;1984;48.312;9.244;2023-04-26T12:35:28;5.67;;;2.73;;
3939;SDS011;1984;48.312;9.244;2023-04-26T12:37:54;4.13;;;2.47;;
3939;SDS011;1984;48.312;9.244;2023-04-26T12:40:21;4.13;;;2.50;;
3939;SDS011;1984;48.312;9.244;2023-04-26T12:42:47;2.10;;;2.00;;
3939;SDS011;1984;48.312;9.244;2023-04-26T12:45:14;3.30;;;2.83;;
3939;SDS011;1984;48.312;9.244;2023-04-26T12:47:42;4.20;;;2.70;;
3939;SDS011;1984;48.312;9.244;2023-04-26T12:50:08;3.80;;;3.23;;
3939;SDS011;1984;48.312;9.244;2023-04-26T12:52:36;5.77;;;2.50;;
3939;SDS011;1984;48.312;9.244;2023-04-26T12:55:03;7.87;;;3.50;;
3939;SDS011;1984;48.312;9.244;2023-04-26T12:57:29;4.07;;;2.63;;
3939;SDS011;1984;48.312;9.244;2023-04-26T12:59:55;4.47;;;2.70;;
3939;SDS011;1984;48.312;9.244;2023-04-26T13:02:20;4.63;;;2.63;;
3939;SDS011;1984;48.312;9.244;2023-04-26T13:04:46;9.13;;;3.40;;
3939;SDS011;1984;48.312;9.244;2023-04-26T13:07:12;3.03;;;2.73;;
3939;SDS011;1984;48.312;9.244;2023-04-26T13:09:38;4.23;;;2.83;;
3939;SDS011;1984;48.312;9.244;2023-04-26T13:12:03;4.10;;;3.00;;
3939;SDS011;1984;48.312;9.244;2023-04-26T13:14:29;6.73;;;2.73;;
3939;SDS011;1984;48.312;9.244;2023-04-26T13:16:55;2.70;;;2.50;;
3939;SDS011;1984;48.312;9.244;2023-04-26T13:19:20;3.83;;;3.33;;
3939;SDS011;1984;48.312;9.244;2023-04-26T13:21:46;7.70;;;2.37;;
3939;SDS011;1984;48.312;9.244;2023-04-26T13:24:11;2.80;;;2.60;;
3939;SDS011;1984;48.312;9.244;2023-04-26T13:26:37;3.37;;;2.30;;
3939;SDS011;1984;48.312;9.244;2023-04-26T13:29:02;7.90;;;2.77;;
3939;SDS011;1984;48.312;9.244;2023-04-26T13:31:28;3.20;;;2.57;;
3939;SDS011;1984;48.312;9.244;2023-04-26T13:33:54;3.20;;;2.93;;
3939;SDS011;1984;48.312;9.244;2023-04-26T13:36:20;2.73;;;2.50;;
3939;SDS011;1984;48.312;9.244;2023-04-26T13:38:46;4.60;;;3.90;;
3939;SDS011;1984;48.312;9.244;2023-04-26T13:41:11;4.30;;;2.53;;
3939;SDS011;1984;48.312;9.244;2023-04-26T13:43:37;2.97;;;2.50;;
3939;SDS011;1984;48.312;9.244;2023-04-26T13:46:02;5.13;;;2.50;;
3939;SDS011;1984;48.312;9.244;2023-04-26T13:48:28;5.37;;;2.47;;
3939;SDS011;1984;48.312;9.244;2023-04-26T13:50:53;2.83;;;2.10;;
3939;SDS011;1984;48.312;9.244;2023-04-26T13:53:22;5.63;;;2.57;;
3939;SDS011;1984;48.312;9.244;2023-04-26T13:55:48;6.10;;;2.30;;
3939;SDS011;1984;48.312;9.244;2023-04-26T13:58:13;4.43;;;2.40;;
3939;SDS011;1984;48.312;9.244;2023-04-26T14:00:39;5.23;;;2.70;;
3939;SDS011;1984;48.312;9.244;2023-04-26T14:03:05;2.40;;;2.07;;
3939;SDS011;1984;48.312;9.244;2023-04-26T14:05:31;5.23;;;2.50;;
3939;SDS011;1984;48.312;9.244;2023-04-26T14:07:56;4.57;;;1.90;;
3939;SDS011;1984;48.312;9.244;2023-04-26T14:10:22;4.17;;;2.20;;
3939;SDS011;1984;48.312;9.244;2023-04-26T14:12:48;2.47;;;1.90;;
3939;SDS011;1984;48.312;9.244;2023-04-26T14:15:14;4.10;;;2.40;;
3939;SDS011;1984;48.312;9.244;2023-04-26T14:17:39;5.00;;;2.17;;
3939;SDS011;1984;48.312;9.244;2023-04-26T14:20:06;3.40;;;2.40;;
3939;SDS011;1984;48.312;9.244;2023-04-26T14:22:34;4.40;;;1.90;;
3939;SDS011;1984;48.312;9.244;2023-04-26T14:24:59;3.57;;;2.40;;
3939;SDS011;1984;48.312;9.244;2023-04-26T14:27:25;2.73;;;2.03;;
3939;SDS011;1984;48.312;9.244;2023-04-26T14:29:51;5.03;;;2.30;;
3939;SDS011;1984;48.312;9.244;2023-04-26T14:32:17;4.10;;;2.30;;
3939;SDS011;1984;48.312;9.244;2023-04-26T14:34:43;6.57;;;2.47;;
3939;SDS011;1984;48.312;9.244;2023-04-26T14:37:08;7.03;;;2.70;;
3939;SDS011;1984;48.312;9.244;2023-04-26T14:39:34;3.73;;;2.67;;
3939;SDS011;1984;48.312;9.244;2023-04-26T14:42:01;4.30;;;2.67;;
3939;SDS011;1984;48.312;9.244;2023-04-26T14:44:27;9.87;;;2.77;;
3939;SDS011;1984;48.312;9.244;2023-04-26T14:46:53;2.67;;;2.47;;
3939;SDS011;1984;48.312;9.244;2023-04-26T14:49:18;4.80;;;2.57;;
3939;SDS011;1984;48.312;9.244;2023-04-26T14:51:44;4.17;;;2.90;;
3939;SDS011;1984;48.312;9.244;2023-04-26T14:54:10;5.17;;;2.60;;
3939;SDS011;1984;48.312;9.244;2023-04-26T14:56:35;2.30;;;2.10;;
3939;SDS011;1984;48.312;9.244;2023-04-26T14:59:02;2.30;;;1.70;;
3939;SDS011;1984;48.312;9.244;2023-04-26T15:01:28;2.13;;;1.97;;
3939;SDS011;1984;48.312;9.244;2023-04-26T15:03:54;3.40;;;2.30;;
3939;SDS011;1984;48.312;9.244;2023-04-26T15:06:20;4.30;;;2.60;;
3939;SDS011;1984;48.312;9.244;2023-04-26T15:08:46;3.43;;;2.80;;
3939;SDS011;1984;48.312;9.244;2023-04-26T15:11:11;8.63;;;2.57;;
3939;SDS011;1984;48.312;9.244;2023-04-26T15:13:37;2.90;;;2.03;;
3939;SDS011;1984;48.312;9.244;2023-04-26T15:16:02;3.23;;;2.10;;
3939;SDS011;1984;48.312;9.244;2023-04-26T15:18:29;4.83;;;2.83;;
3939;SDS011;1984;48.312;9.244;2023-04-26T15:20:54;9.50;;;2.43;;
3939;SDS011;1984;48.312;9.244;2023-04-26T15:23:20;14.07;;;6.43;;
3939;SDS011;1984;48.312;9.244;2023-04-26T15:25:45;2.87;;;2.67;;
3939;SDS011;1984;48.312;9.244;2023-04-26T15:28:11;2.67;;;2.50;;
3939;SDS011;1984;48.312;9.244;2023-04-26T15:30:36;3.10;;;2.40;;
3939;SDS011;1984;48.312;9.244;2023-04-26T15:33:02;3.90;;;2.23;;
3939;SDS011;1984;48.312;9.244;2023-04-26T15:35:28;2.73;;;2.00;;
3939;SDS011;1984;48.312;9.244;2023-04-26T15:37:53;1.80;;;1.70;;